Time;durP1;ratioP1;P1;durP2;ratioP2;P2;SDS_P1;SDS_P2;PMS_P1;PMS_P2;Temp;Humidity;BMP_temperature;BMP_pressure;BME280_temperature;BME280_humidity;BME280_pressure;Samples;Min_cycle;Max_cycle;Signal;HPM_P1;HPM_P2
2023/03/02 06:00:35;;;;;;;35.43;25.30;;;4.80;97.20;;;;;;1727441;28;20196;-65
2023/03/02 06:01:25;;;;;;;30.05;26.23;;;4.80;97.20;;;;;;1727472;28;20204;-65
2023/03/02 06:02:17;;;;;;;27.30;24.23;;;4.80;97.20;;;;;;1727383;28;20196;-65
2023/03/02 06:03:08;;;;;;;28.13;25.08;;;4.80;97.20;;;;;;1727322;28;20211;-65
2023/03/02 06:04:00;;;;;;;27.83;24.83;;;4.80;97.20;;;;;;1727342;28;20200;-65
2023/03/02 06:04:51;;;;;;;27.65;24.65;;;4.80;97.20;;;;;;1727416;28;20682;-65
2023/03/02 06:05:42;;;;;;;28.33;24.20;;;4.80;97.20;;;;;;1727369;28;20678;-65
2023/03/02 06:06:33;;;;;;;27.85;24.95;;;4.80;97.20;;;;;;1727084;28;20216;-65
2023/03/02 06:07:26;;;;;;;29.47;26.27;;;4.80;97.20;;;;;;1727241;28;20200;-65
2023/03/02 06:08:17;;;;;;;29.90;26.20;;;4.80;97.20;;;;;;1727323;28;20203;-65
2023/03/02 06:09:09;;;;;;;29.08;25.33;;;4.80;97.20;;;;;;1727417;28;20192;-65
2023/03/02 06:09:59;;;;;;;28.15;25.15;;;4.90;97.20;;;;;;1727299;28;20243;-65
2023/03/02 06:10:55;;;;;;;30.03;24.53;;;4.90;97.20;;;;;;1727356;28;20743;-65
2023/03/02 06:11:46;;;;;;;28.88;24.35;;;4.90;97.20;;;;;;1727324;28;20239;-65
2023/03/02 06:12:38;;;;;;;28.27;25.20;;;4.90;97.20;;;;;;1727374;28;20310;-65
2023/03/02 06:13:29;;;;;;;29.63;25.55;;;4.90;97.20;;;;;;1727343;28;20200;-65
2023/03/02 06:14:20;;;;;;;36.50;26.30;;;4.90;97.20;;;;;;1727282;28;20208;-65
2023/03/02 06:15:11;;;;;;;29.15;25.70;;;4.90;97.20;;;;;;1726903;28;20204;-65
2023/03/02 06:16:05;;;;;;;28.00;24.60;;;4.90;97.20;;;;;;1727140;28;20211;-65
2023/03/02 06:16:56;;;;;;;27.70;24.80;;;5.00;97.20;;;;;;1727037;28;20201;-65
2023/03/02 06:17:47;;;;;;;28.17;25.17;;;5.00;97.20;;;;;;1726943;28;20192;-65
2023/03/02 06:18:38;;;;;;;31.73;25.92;;;5.00;97.20;;;;;;1727231;28;20208;-65
2023/03/02 06:19:30;;;;;;;29.80;26.60;;;5.00;97.20;;;;;;1727239;28;20224;-65
2023/03/02 06:20:21;;;;;;;33.35;26.55;;;5.00;97.20;;;;;;1727219;28;20584;-65
2023/03/02 06:21:12;;;;;;;29.10;24.97;;;5.00;97.20;;;;;;1727358;28;20204;-64
2023/03/02 06:22:03;;;;;;;28.27;24.50;;;5.00;97.20;;;;;;1727299;28;20211;-65
2023/03/02 06:22:55;;;;;;;32.07;25.70;;;5.00;97.20;;;;;;1727330;28;20204;-65
2023/03/02 06:23:46;;;;;;;30.65;25.70;;;5.00;97.20;;;;;;1727282;28;20242;-65
2023/03/02 06:24:37;;;;;;;28.90;24.93;;;5.00;97.20;;;;;;1727289;28;20197;-65
2023/03/02 06:25:28;;;;;;;30.38;26.58;;;5.10;97.20;;;;;;1727328;28;20205;-65
2023/03/02 06:26:20;;;;;;;27.97;24.87;;;5.10;97.20;;;;;;1727044;28;20207;-65
2023/03/02 06:27:11;;;;;;;28.73;25.10;;;5.10;97.20;;;;;;1727240;28;20251;-65
2023/03/02 06:28:03;;;;;;;29.00;24.90;;;5.10;97.20;;;;;;1727227;28;20196;-65
2023/03/02 06:28:53;;;;;;;28.88;25.55;;;5.10;97.20;;;;;;1727251;28;20478;-65
2023/03/02 06:29:45;;;;;;;31.63;26.50;;;5.10;97.20;;;;;;1727069;28;20193;-65
2023/03/02 06:30:36;;;;;;;31.40;25.60;;;5.10;97.20;;;;;;1726431;28;20263;-65
2023/03/02 06:31:29;;;;;;;27.60;24.60;;;5.10;97.20;;;;;;1727186;28;20204;-65
2023/03/02 06:32:20;;;;;;;36.58;26.67;;;5.10;97.20;;;;;;1727174;28;20615;-65
2023/03/02 06:33:12;;;;;;;28.83;25.80;;;5.10;97.20;;;;;;1727175;28;20619;-65
2023/03/02 06:34:03;;;;;;;28.35;25.17;;;5.10;97.20;;;;;;1727277;28;20205;-65
2023/03/02 06:34:54;;;;;;;35.20;25.77;;;5.10;97.20;;;;;;1727329;28;20200;-65
2023/03/02 06:35:45;;;;;;;29.02;25.88;;;5.10;97.20;;;;;;1728017;28;20240;-65
2023/03/02 06:36:37;;;;;;;31.55;26.60;;;5.10;97.20;;;;;;1728294;28;20262;-65
2023/03/02 06:37:29;;;;;;;30.63;25.48;;;5.20;97.20;;;;;;1728533;28;20659;-65
2023/03/02 06:38:21;;;;;;;29.48;24.70;;;5.20;97.20;;;;;;1728586;28;20616;-65
2023/03/02 06:39:14;;;;;;;31.48;27.33;;;5.20;97.20;;;;;;1728445;28;20239;-65
2023/03/02 06:40:09;;;;;;;32.28;27.52;;;5.20;97.20;;;;;;1728528;28;20201;-65
2023/03/02 06:40:59;;;;;;;31.55;25.88;;;5.20;97.20;;;;;;1728482;28;20283;-65
2023/03/02 06:41:51;;;;;;;30.90;27.00;;;5.20;97.20;;;;;;1728633;28;20201;-65
2023/03/02 06:42:42;;;;;;;31.73;26.00;;;5.20;97.20;;;;;;1728500;28;20239;-65
2023/03/02 06:43:34;;;;;;;29.73;26.27;;;5.20;97.20;;;;;;1728499;28;20209;-65
2023/03/02 06:44:24;;;;;;;30.92;24.77;;;5.20;97.20;;;;;;1728524;28;20201;-65
2023/03/02 06:45:16;;;;;;;30.37;25.23;;;5.20;97.20;;;;;;1728512;28;20197;-65
2023/03/02 06:46:07;;;;;;;30.70;25.83;;;5.30;97.20;;;;;;1728344;28;20236;-65
2023/03/02 06:47:00;;;;;;;33.00;25.03;;;5.20;97.20;;;;;;1728175;28;20200;-65
2023/03/02 06:47:51;;;;;;;26.95;22.00;;;5.20;97.20;;;;;;1728372;28;20658;-65
2023/03/02 06:48:42;;;;;;;25.93;23.00;;;5.20;97.20;;;;;;1728486;28;20668;-65
2023/03/02 06:49:33;;;;;;;29.88;22.38;;;5.20;97.20;;;;;;1728505;28;20203;-65
2023/03/02 06:50:25;;;;;;;26.00;21.00;;;5.30;97.20;;;;;;1728231;28;20200;-65
2023/03/02 06:51:16;;;;;;;28.98;21.48;;;5.30;97.20;;;;;;1728280;28;20467;-65
2023/03/02 06:52:09;;;;;;;26.60;21.10;;;5.30;97.20;;;;;;1728400;28;20201;-65
2023/03/02 06:53:00;;;;;;;25.42;20.30;;;5.30;97.20;;;;;;1728239;28;20204;-65
2023/03/02 06:53:52;;;;;;;26.33;22.27;;;5.30;97.20;;;;;;1728344;28;20204;-65
2023/03/02 06:54:43;;;;;;;26.02;21.60;;;5.30;97.20;;;;;;1728277;28;20228;-65
2023/03/02 06:55:34;;;;;;;25.27;21.50;;;5.30;97.20;;;;;;1728509;28;20204;-65
2023/03/02 06:56:26;;;;;;;26.65;21.42;;;5.40;97.20;;;;;;1728115;28;20228;-65
2023/03/02 06:57:17;;;;;;;26.25;21.35;;;5.40;97.20;;;;;;1728449;28;20287;-65
2023/03/02 06:58:11;;;;;;;25.85;20.88;;;5.40;97.20;;;;;;1728132;28;20333;-65
2023/03/02 06:59:03;;;;;;;25.52;21.15;;;5.40;97.20;;;;;;1728347;28;20288;-65
2023/03/02 06:59:54;;;;;;;28.45;22.40;;;5.40;97.20;;;;;;1728043;28;20674;-66
2023/03/02 07:00:46;;;;;;;27.20;22.53;;;5.40;97.20;;;;;;1728317;28;20648;-65
2023/03/02 07:01:37;;;;;;;25.63;21.58;;;5.40;97.20;;;;;;1728166;28;20208;-65
2023/03/02 07:02:30;;;;;;;24.90;20.33;;;5.40;97.20;;;;;;1728376;28;20196;-65
2023/03/02 07:03:21;;;;;;;25.85;20.60;;;5.40;97.20;;;;;;1727906;28;20291;-65
2023/03/02 07:04:12;;;;;;;24.55;21.35;;;5.40;97.20;;;;;;1728447;28;20596;-65
2023/03/02 07:05:04;;;;;;;25.95;22.38;;;5.40;97.20;;;;;;1728424;28;20201;-65
2023/03/02 07:05:56;;;;;;;26.58;21.02;;;5.40;97.20;;;;;;1728471;28;20730;-65
2023/03/02 07:06:46;;;;;;;24.25;21.38;;;5.40;97.20;;;;;;1728149;28;20200;-65
2023/03/02 07:07:38;;;;;;;22.73;19.93;;;5.40;97.20;;;;;;1727849;28;20214;-65
2023/03/02 07:08:29;;;;;;;26.13;21.48;;;5.50;97.20;;;;;;1728321;28;20204;-65
2023/03/02 07:09:21;;;;;;;24.90;21.63;;;5.50;97.20;;;;;;1728326;28;20283;-65
2023/03/02 07:10:13;;;;;;;24.33;21.25;;;5.50;97.20;;;;;;1728213;28;20801;-65
2023/03/02 07:11:05;;;;;;;24.92;20.90;;;5.50;97.20;;;;;;1728377;28;20193;-66
2023/03/02 07:11:56;;;;;;;25.13;22.15;;;5.50;97.20;;;;;;1728257;28;20223;-65
2023/03/02 07:12:48;;;;;;;26.37;22.43;;;5.50;97.20;;;;;;1728425;28;20201;-65
2023/03/02 07:13:39;;;;;;;25.65;21.42;;;5.50;97.20;;;;;;1728319;28;20232;-65
2023/03/02 07:14:31;;;;;;;27.75;22.08;;;5.50;97.20;;;;;;1728310;28;20255;-65
2023/03/02 07:15:21;;;;;;;28.48;21.92;;;5.60;97.20;;;;;;1728313;28;20604;-65
2023/03/02 07:16:14;;;;;;;25.70;21.00;;;5.60;97.20;;;;;;1728103;28;20239;-66
2023/03/02 07:17:05;;;;;;;23.73;21.20;;;5.60;97.20;;;;;;1728294;28;20689;-65
2023/03/02 07:17:58;;;;;;;29.53;22.00;;;5.60;97.20;;;;;;1728277;28;20600;-65
2023/03/02 07:18:49;;;;;;;25.45;21.70;;;5.60;97.20;;;;;;1728364;28;20366;-65
2023/03/02 07:19:41;;;;;;;31.03;22.53;;;5.60;97.20;;;;;;1727924;28;20256;-65
2023/03/02 07:20:33;;;;;;;27.27;22.92;;;5.60;97.20;;;;;;1727972;28;20227;-65
2023/03/02 07:21:24;;;;;;;24.80;20.48;;;5.60;97.20;;;;;;1728188;28;20654;-65
2023/03/02 07:22:15;;;;;;;26.73;22.20;;;5.60;97.20;;;;;;1728209;28;20254;-65
2023/03/02 07:23:07;;;;;;;24.80;21.93;;;5.60;97.20;;;;;;1728102;28;20212;-65
2023/03/02 07:23:57;;;;;;;24.00;21.40;;;5.60;97.20;;;;;;1727865;28;20205;-65
2023/03/02 07:24:49;;;;;;;26.77;21.47;;;5.60;97.20;;;;;;1727668;28;20200;-65
2023/03/02 07:25:40;;;;;;;31.58;21.00;;;5.60;97.20;;;;;;1727251;28;20239;-65
2023/03/02 07:26:32;;;;;;;24.50;21.63;;;5.60;97.20;;;;;;1727214;28;20207;-65
2023/03/02 07:27:22;;;;;;;26.88;21.75;;;5.70;97.20;;;;;;1726995;28;20471;-65
2023/03/02 07:28:14;;;;;;;23.40;20.80;;;5.70;97.20;;;;;;1727832;28;20197;-65
2023/03/02 07:29:05;;;;;;;23.75;21.13;;;5.60;97.20;;;;;;1727884;28;20693;-65
2023/03/02 07:29:56;;;;;;;25.10;21.10;;;5.60;97.20;;;;;;1727786;28;20192;-65
2023/03/02 07:30:47;;;;;;;26.55;20.65;;;5.60;97.20;;;;;;1727480;28;20270;-65
2023/03/02 07:31:39;;;;;;;23.77;21.23;;;5.70;97.20;;;;;;1727576;28;20200;-65
2023/03/02 07:32:29;;;;;;;25.45;21.02;;;5.70;97.20;;;;;;1727623;28;20227;-65
2023/03/02 07:33:22;;;;;;;24.63;21.40;;;5.70;97.20;;;;;;1727753;28;20203;-65
2023/03/02 07:34:14;;;;;;;26.17;21.58;;;5.70;97.20;;;;;;1727785;28;20235;-65
2023/03/02 07:35:06;;;;;;;25.30;20.80;;;5.70;97.20;;;;;;1727786;28;20454;-65
2023/03/02 07:35:57;;;;;;;25.25;21.23;;;5.70;97.20;;;;;;1727740;28;20204;-65
2023/03/02 07:36:49;;;;;;;25.13;20.67;;;5.70;97.20;;;;;;1727535;28;20228;-65
2023/03/02 07:37:39;;;;;;;26.48;21.85;;;5.70;97.20;;;;;;1727636;28;20205;-65
2023/03/02 07:38:31;;;;;;;26.43;20.17;;;5.70;97.20;;;;;;1727913;28;20662;-65
2023/03/02 07:39:22;;;;;;;26.25;22.40;;;5.70;97.20;;;;;;1728058;28;20326;-65
2023/03/02 07:40:14;;;;;;;27.83;22.13;;;5.80;97.20;;;;;;1728054;28;20331;-65
2023/03/02 07:41:08;;;;;;;25.23;20.27;;;5.80;97.20;;;;;;1728145;28;20240;-65
2023/03/02 07:42:00;;;;;;;23.60;20.60;;;5.80;97.20;;;;;;1728127;28;20201;-65
2023/03/02 07:42:51;;;;;;;26.63;20.52;;;5.80;97.20;;;;;;1728208;28;20573;-65
2023/03/02 07:43:43;;;;;;;24.73;20.57;;;5.80;97.20;;;;;;1728179;28;20295;-65
2023/03/02 07:44:34;;;;;;;25.02;19.70;;;5.80;97.20;;;;;;1727399;28;20577;-65
2023/03/02 07:45:26;;;;;;;27.83;21.07;;;5.90;97.20;;;;;;1728138;28;20585;-65
2023/03/02 07:46:16;;;;;;;23.88;21.33;;;5.90;97.20;;;;;;1727433;28;20236;-65
2023/03/02 07:47:08;;;;;;;26.33;21.37;;;5.90;97.20;;;;;;1727792;28;20193;-65
2023/03/02 07:47:59;;;;;;;27.35;21.92;;;5.90;97.20;;;;;;1728072;28;20682;-65
2023/03/02 07:48:52;;;;;;;26.87;22.03;;;5.90;97.20;;;;;;1728099;28;20576;-65
2023/03/02 07:49:43;;;;;;;26.92;21.10;;;5.90;97.20;;;;;;1728063;28;20215;-65
2023/03/02 07:50:35;;;;;;;24.73;21.73;;;6.00;97.20;;;;;;1727799;28;20251;-66
2023/03/02 07:51:26;;;;;;;28.63;21.10;;;6.00;97.20;;;;;;1728085;28;20200;-65
2023/03/02 07:52:18;;;;;;;26.20;20.67;;;6.00;97.20;;;;;;1728073;28;20207;-65
2023/03/02 07:53:08;;;;;;;24.83;21.35;;;6.00;97.20;;;;;;1728073;28;20451;-66
2023/03/02 07:54:01;;;;;;;26.33;22.07;;;6.00;97.20;;;;;;1727993;28;20204;-66
2023/03/02 07:54:52;;;;;;;25.13;21.35;;;6.10;97.20;;;;;;1728101;28;20246;-66
2023/03/02 07:55:44;;;;;;;27.43;21.20;;;6.10;97.20;;;;;;1728089;28;20232;-65
2023/03/02 07:56:35;;;;;;;25.98;20.85;;;6.10;97.20;;;;;;1727682;28;20204;-65
2023/03/02 07:57:26;;;;;;;29.90;22.67;;;6.10;97.20;;;;;;1727980;28;20204;-65
2023/03/02 07:58:17;;;;;;;29.92;22.55;;;6.10;97.20;;;;;;1727985;28;20227;-65
2023/03/02 07:59:09;;;;;;;23.90;20.73;;;6.10;97.20;;;;;;1727807;28;20211;-65
2023/03/02 08:00:00;;;;;;;28.30;22.10;;;6.20;97.20;;;;;;1727696;28;20252;-65
2023/03/02 08:00:52;;;;;;;28.37;22.57;;;6.20;97.20;;;;;;1727971;28;20231;-65
2023/03/02 08:01:42;;;;;;;27.58;21.98;;;6.30;97.20;;;;;;1728039;28;20212;-65
2023/03/02 08:02:34;;;;;;;26.53;22.60;;;6.30;97.20;;;;;;1728052;28;20215;-66
2023/03/02 08:03:25;;;;;;;26.98;21.73;;;6.30;97.20;;;;;;1727901;28;20254;-65
2023/03/02 08:04:18;;;;;;;25.10;20.97;;;6.40;97.20;;;;;;1728022;28;20206;-65
2023/03/02 08:05:10;;;;;;;29.02;21.67;;;6.40;97.20;;;;;;1728032;28;20450;-65
2023/03/02 08:06:05;;;;;;;25.15;21.67;;;6.40;97.20;;;;;;1727984;28;20669;-65
2023/03/02 08:06:56;;;;;;;27.15;21.50;;;6.40;97.20;;;;;;1727719;28;20204;-65
2023/03/02 08:07:47;;;;;;;26.80;21.30;;;6.40;97.20;;;;;;1727944;28;20239;-66
2023/03/02 08:08:38;;;;;;;25.50;21.92;;;6.40;97.20;;;;;;1727894;28;20213;-65
2023/03/02 08:09:30;;;;;;;24.73;21.92;;;6.50;97.20;;;;;;1728068;28;20203;-66
2023/03/02 08:10:21;;;;;;;26.95;22.00;;;6.50;97.20;;;;;;1727861;28;20670;-65
2023/03/02 08:11:16;;;;;;;25.33;20.73;;;6.50;97.20;;;;;;1727885;28;20207;-65
2023/03/02 08:12:07;;;;;;;23.80;20.58;;;6.50;97.20;;;;;;1727988;28;20212;-65
2023/03/02 08:12:58;;;;;;;24.00;21.07;;;6.50;97.20;;;;;;1727984;28;20211;-65
2023/03/02 08:13:49;;;;;;;25.83;21.92;;;6.50;97.20;;;;;;1728004;28;20817;-65
2023/03/02 08:14:41;;;;;;;28.37;22.03;;;6.50;97.20;;;;;;1727914;28;20226;-66
2023/03/02 08:15:32;;;;;;;25.10;21.05;;;6.50;97.20;;;;;;1727754;28;20207;-65
2023/03/02 08:16:25;;;;;;;25.93;20.90;;;6.40;97.20;;;;;;1727618;28;20195;-65
2023/03/02 08:17:15;;;;;;;24.33;20.08;;;6.40;97.20;;;;;;1727908;28;20483;-66
2023/03/02 08:18:07;;;;;;;24.37;21.47;;;6.40;97.20;;;;;;1728053;28;20211;-66
2023/03/02 08:18:58;;;;;;;31.55;21.63;;;6.40;97.20;;;;;;1727872;28;20227;-65
2023/03/02 08:19:51;;;;;;;25.50;21.13;;;6.40;97.20;;;;;;1727934;28;20203;-65
2023/03/02 08:20:42;;;;;;;26.33;20.50;;;6.40;97.20;;;;;;1727851;28;20228;-65
2023/03/02 08:21:33;;;;;;;28.10;21.63;;;6.40;97.20;;;;;;1727931;28;20204;-65
2023/03/02 08:22:24;;;;;;;28.60;21.20;;;6.30;97.20;;;;;;1727858;28;20259;-65
2023/03/02 08:23:16;;;;;;;24.90;21.40;;;6.30;97.20;;;;;;1727841;28;20210;-65
2023/03/02 08:24:07;;;;;;;25.92;21.27;;;6.30;97.20;;;;;;1727916;28;20689;-65
2023/03/02 08:24:59;;;;;;;27.73;20.55;;;6.30;97.20;;;;;;1727837;28;20200;-65
2023/03/02 08:25:51;;;;;;;25.45;20.95;;;6.30;97.20;;;;;;1727885;28;20622;-65
2023/03/02 08:26:43;;;;;;;27.40;21.92;;;6.30;97.20;;;;;;1727598;28;20635;-65
2023/03/02 08:27:34;;;;;;;27.80;21.98;;;6.30;97.20;;;;;;1727828;28;20224;-65
2023/03/02 08:28:25;;;;;;;28.83;21.80;;;6.30;97.20;;;;;;1727953;28;20200;-65
2023/03/02 08:29:17;;;;;;;26.80;21.45;;;6.30;97.20;;;;;;1727780;28;20486;-65
2023/03/02 08:30:09;;;;;;;25.73;22.17;;;6.30;97.20;;;;;;1727906;28;20682;-65
2023/03/02 08:31:02;;;;;;;31.52;21.77;;;6.30;97.20;;;;;;1727743;28;20209;-65
2023/03/02 08:31:53;;;;;;;28.35;22.65;;;6.30;97.20;;;;;;1727850;28;20300;-66
2023/03/02 08:32:45;;;;;;;28.10;21.30;;;6.30;97.20;;;;;;1727476;28;20283;-65
2023/03/02 08:33:36;;;;;;;24.27;21.05;;;6.40;97.20;;;;;;1727752;28;20443;-66
2023/03/02 08:34:28;;;;;;;25.70;22.55;;;6.40;97.20;;;;;;1727791;28;20658;-65
2023/03/02 08:35:21;;;;;;;30.42;21.63;;;6.40;97.20;;;;;;1727776;28;20212;-65
2023/03/02 08:36:14;;;;;;;27.05;20.95;;;6.40;97.20;;;;;;1727599;28;20204;-66
2023/03/02 08:37:05;;;;;;;25.77;20.80;;;6.40;97.20;;;;;;1727770;28;20228;-65
2023/03/02 08:37:58;;;;;;;25.80;22.30;;;6.40;97.20;;;;;;1727728;28;20201;-65
2023/03/02 08:38:49;;;;;;;24.80;21.35;;;6.50;97.20;;;;;;1727824;28;20200;-65
2023/03/02 08:39:40;;;;;;;25.50;21.60;;;6.50;97.20;;;;;;1727817;28;20214;-65
2023/03/02 08:40:31;;;;;;;28.10;22.52;;;6.50;97.20;;;;;;1727610;28;20729;-65
2023/03/02 08:41:24;;;;;;;25.73;20.43;;;6.50;97.20;;;;;;1727826;28;20574;-66
2023/03/02 08:42:15;;;;;;;28.85;20.88;;;6.50;97.20;;;;;;1727768;28;20204;-65
2023/03/02 08:43:07;;;;;;;23.77;21.00;;;6.60;97.20;;;;;;1727875;28;20205;-65
2023/03/02 08:43:58;;;;;;;27.25;21.02;;;6.70;97.20;;;;;;1727728;28;20447;-65
2023/03/02 08:44:50;;;;;;;26.17;22.80;;;6.70;97.20;;;;;;1727800;28;20193;-66
2023/03/02 08:45:40;;;;;;;26.48;21.63;;;6.80;97.20;;;;;;1727713;28;20455;-65
2023/03/02 08:46:32;;;;;;;25.43;22.07;;;6.80;97.20;;;;;;1727539;28;20192;-65
2023/03/02 08:47:23;;;;;;;25.15;21.10;;;6.80;97.20;;;;;;1727694;28;20232;-65
2023/03/02 08:48:14;;;;;;;26.00;21.47;;;6.90;97.20;;;;;;1727778;28;20197;-65
2023/03/02 08:49:06;;;;;;;26.85;22.02;;;6.90;97.20;;;;;;1727821;28;20233;-65
2023/03/02 08:49:57;;;;;;;25.27;22.10;;;6.90;97.20;;;;;;1727401;28;20216;-65
2023/03/02 08:50:57;;;;;;;25.30;21.30;;;7.00;97.20;;;;;;1727756;28;20227;-65
2023/03/02 08:51:52;;;;;;;28.13;21.40;;;7.00;97.20;;;;;;1727759;28;20228;-66
2023/03/02 08:52:43;;;;;;;28.30;22.65;;;7.10;97.20;;;;;;1727823;28;20259;-65
2023/03/02 08:53:38;;;;;;;26.33;22.25;;;7.10;97.20;;;;;;1727691;28;20200;-65
2023/03/02 08:54:30;;;;;;;23.83;21.15;;;7.20;97.20;;;;;;1727750;28;20205;-66
2023/03/02 08:55:21;;;;;;;30.13;20.55;;;7.20;97.20;;;;;;1727579;28;20201;-65
2023/03/02 08:56:18;;;;;;;25.60;21.80;;;7.30;97.20;;;;;;1727471;28;20200;-66
2023/03/02 08:57:10;;;;;;;29.38;22.15;;;7.30;97.20;;;;;;1727711;28;20663;-66
2023/03/02 08:58:01;;;;;;;29.10;21.83;;;7.40;97.20;;;;;;1727143;28;20585;-65
2023/03/02 08:58:55;;;;;;;26.20;21.60;;;7.50;97.20;;;;;;1727483;28;20701;-65
2023/03/02 08:59:46;;;;;;;28.58;21.80;;;7.50;97.20;;;;;;1727613;28;20454;-65
2023/03/02 09:00:38;;;;;;;25.20;21.37;;;7.60;97.20;;;;;;1727535;28;20232;-65
2023/03/02 09:01:30;;;;;;;26.25;21.55;;;7.70;97.20;;;;;;1727647;28;20205;-65
2023/03/02 09:02:22;;;;;;;25.85;20.60;;;7.70;97.20;;;;;;1727615;28;20673;-65
2023/03/02 09:03:13;;;;;;;29.13;21.27;;;7.80;97.20;;;;;;1727630;28;20223;-65
2023/03/02 09:04:07;;;;;;;25.75;20.73;;;7.80;97.20;;;;;;1727693;28;20204;-66
2023/03/02 09:04:58;;;;;;;28.02;21.70;;;7.90;97.20;;;;;;1727595;28;20247;-65
2023/03/02 09:05:50;;;;;;;24.00;21.40;;;8.00;97.20;;;;;;1727326;28;20192;-66
2023/03/02 09:06:44;;;;;;;24.05;20.95;;;8.00;97.20;;;;;;1727304;28;20231;-65
2023/03/02 09:07:35;;;;;;;25.08;21.00;;;8.10;97.20;;;;;;1727595;28;20212;-65
2023/03/02 09:08:26;;;;;;;26.73;21.88;;;8.20;97.20;;;;;;1727665;28;20201;-65
2023/03/02 09:09:18;;;;;;;28.03;21.20;;;8.30;97.20;;;;;;1727646;28;20204;-65
2023/03/02 09:10:09;;;;;;;26.13;22.42;;;8.40;97.20;;;;;;1727612;28;20209;-65
2023/03/02 09:11:01;;;;;;;24.50;21.08;;;8.50;97.20;;;;;;1727618;28;20284;-65
2023/03/02 09:11:53;;;;;;;24.70;21.15;;;8.60;97.20;;;;;;1727632;28;20205;-65
2023/03/02 09:12:43;;;;;;;24.58;20.98;;;8.70;97.20;;;;;;1727599;28;20686;-65
2023/03/02 09:13:35;;;;;;;24.27;21.50;;;8.80;97.20;;;;;;1727534;28;20604;-66
2023/03/02 09:14:26;;;;;;;24.88;20.63;;;8.90;97.20;;;;;;1727516;28;20200;-65
2023/03/02 09:15:18;;;;;;;24.63;21.90;;;9.00;97.20;;;;;;1727595;28;20200;-66
2023/03/02 09:16:09;;;;;;;27.95;22.25;;;9.10;97.20;;;;;;1727647;28;20569;-66
2023/03/02 09:17:01;;;;;;;23.70;21.20;;;9.20;97.20;;;;;;1727499;28;20201;-65
2023/03/02 09:17:52;;;;;;;23.95;20.58;;;9.30;97.20;;;;;;1727541;28;20626;-66
2023/03/02 09:18:44;;;;;;;30.50;21.80;;;9.30;97.20;;;;;;1727558;28;20262;-66
2023/03/02 09:19:40;;;;;;;24.33;19.83;;;9.40;97.20;;;;;;1727577;28;20207;-65
2023/03/02 09:20:32;;;;;;;27.17;21.40;;;9.40;97.20;;;;;;1727512;28;20233;-65
2023/03/02 09:21:24;;;;;;;23.60;20.60;;;9.50;97.20;;;;;;1727719;28;20208;-65
2023/03/02 09:22:17;;;;;;;25.55;22.20;;;9.50;97.20;;;;;;1727531;28;20295;-65
2023/03/02 09:23:08;;;;;;;22.17;19.77;;;9.50;97.20;;;;;;1727190;28;20196;-66
2023/03/02 09:23:59;;;;;;;23.30;20.83;;;9.50;97.20;;;;;;1727559;28;20200;-65
2023/03/02 09:24:50;;;;;;;24.17;20.40;;;9.50;97.20;;;;;;1727325;28;20200;-65
2023/03/02 09:25:42;;;;;;;23.00;19.80;;;9.60;97.20;;;;;;1727443;28;20674;-65
2023/03/02 09:26:33;;;;;;;24.77;21.35;;;9.60;97.20;;;;;;1727234;28;20454;-66
2023/03/02 09:27:25;;;;;;;22.70;19.73;;;9.60;97.20;;;;;;1727441;28;20213;-65
2023/03/02 09:28:16;;;;;;;24.02;20.20;;;9.60;97.20;;;;;;1727488;28;20672;-65
2023/03/02 09:29:08;;;;;;;24.00;21.30;;;9.60;97.20;;;;;;1727640;28;20205;-66
2023/03/02 09:29:59;;;;;;;22.13;19.63;;;9.60;97.20;;;;;;1727346;28;20875;-65
2023/03/02 09:30:52;;;;;;;23.30;20.80;;;9.60;97.20;;;;;;1727330;28;20246;-65
2023/03/02 09:31:43;;;;;;;27.30;20.52;;;9.60;97.20;;;;;;1727465;28;20207;-65
2023/03/02 09:32:35;;;;;;;21.87;19.17;;;9.60;97.20;;;;;;1727538;28;20211;-65
2023/03/02 09:33:27;;;;;;;22.52;20.15;;;9.60;97.20;;;;;;1727497;28;20239;-65
2023/03/02 09:34:18;;;;;;;23.65;20.55;;;9.70;97.20;;;;;;1727542;28;20200;-65
2023/03/02 09:35:09;;;;;;;26.20;20.95;;;9.70;97.20;;;;;;1727476;28;20239;-65
2023/03/02 09:36:05;;;;;;;24.10;21.50;;;9.70;97.20;;;;;;1727475;28;20219;-65
2023/03/02 09:36:56;;;;;;;21.50;18.98;;;9.70;97.20;;;;;;1727222;28;20444;-65
2023/03/02 09:37:49;;;;;;;25.33;22.47;;;9.70;97.20;;;;;;1727463;28;20215;-65
2023/03/02 09:38:40;;;;;;;25.80;21.45;;;9.80;97.20;;;;;;1727502;28;20204;-65
2023/03/02 09:39:31;;;;;;;24.57;20.33;;;9.80;97.20;;;;;;1727065;28;20219;-66
2023/03/02 09:40:24;;;;;;;22.88;20.42;;;9.90;97.20;;;;;;1727129;28;20228;-65
2023/03/02 09:41:41;;;;;;;27.90;21.50;;;9.90;97.20;;;;;;1727479;28;20740;-65
2023/03/02 09:42:52;;;;;;;25.67;20.58;;;9.90;97.20;;;;;;1727489;28;20691;-65
2023/03/02 09:43:52;;;;;;;24.35;20.95;;;10.00;97.20;;;;;;1727379;28;20201;-66
2023/03/02 09:45:23;;;;;;;24.10;20.73;;;10.00;97.20;;;;;;1727479;28;20242;-65
2023/03/02 09:46:21;;;;;;;25.55;21.50;;;10.00;97.20;;;;;;1706253;28;20236;-66
2023/03/02 09:47:21;;;;;;;25.42;21.83;;;10.00;97.20;;;;;;1727517;28;20208;-65
2023/03/02 09:48:21;;;;;;;27.23;20.80;;;10.10;97.20;;;;;;1727441;28;20235;-65
2023/03/02 09:49:25;;;;;;;23.02;20.08;;;10.00;97.20;;;;;;1727435;28;20581;-65
2023/03/02 09:50:27;;;;;;;25.33;21.90;;;10.10;97.20;;;;;;1727381;28;20238;-66
2023/03/02 09:51:28;;;;;;;24.60;21.23;;;10.00;97.20;;;;;;1727397;28;20196;-65
2023/03/02 09:52:30;;;;;;;24.27;21.05;;;10.00;97.20;;;;;;1727449;28;20659;-65
2023/03/02 09:53:34;;;;;;;23.50;20.40;;;10.00;97.20;;;;;;1727386;28;20196;-65
2023/03/02 09:54:25;;;;;;;22.88;19.67;;;9.90;97.20;;;;;;1727458;28;20335;-66
2023/03/02 09:55:22;;;;;;;23.23;20.75;;;9.90;97.20;;;;;;1727481;28;20200;-65
2023/03/02 09:56:15;;;;;;;25.02;20.90;;;9.80;97.20;;;;;;1726779;28;20215;-65
2023/03/02 09:57:19;;;;;;;24.55;20.73;;;9.80;97.20;;;;;;1727445;28;20201;-65
2023/03/02 09:58:16;;;;;;;25.95;21.60;;;9.80;97.20;;;;;;1727413;28;20211;-65
2023/03/02 09:59:18;;;;;;;26.02;20.20;;;9.80;97.20;;;;;;1727487;28;20575;-66
2023/03/02 10:00:13;;;;;;;24.85;21.10;;;9.80;97.20;;;;;;1727419;28;20228;-66
2023/03/02 10:01:13;;;;;;;23.33;20.17;;;9.90;97.20;;;;;;1727356;28;20223;-65
2023/03/02 10:02:20;;;;;;;23.75;20.42;;;9.90;97.20;;;;;;1727367;28;20216;-65
2023/03/02 10:03:17;;;;;;;22.83;20.42;;;9.90;97.20;;;;;;1727316;28;20200;-65
2023/03/02 10:04:20;;;;;;;25.10;20.88;;;9.90;97.20;;;;;;1727408;28;20200;-65
2023/03/02 10:05:17;;;;;;;26.25;21.42;;;9.90;97.20;;;;;;1727394;28;20655;-65
2023/03/02 10:06:08;;;;;;;28.20;21.25;;;10.00;97.20;;;;;;1727410;28;20228;-66
2023/03/02 10:07:10;;;;;;;25.33;22.70;;;10.00;97.20;;;;;;1727142;28;20200;-66
2023/03/02 10:08:01;;;;;;;23.60;21.15;;;10.00;97.20;;;;;;1727295;28;20204;-65
2023/03/02 10:08:55;;;;;;;24.47;21.03;;;10.00;97.20;;;;;;1727366;28;20192;-66
2023/03/02 10:09:46;;;;;;;24.33;21.38;;;10.00;97.20;;;;;;1728133;28;20200;-65
2023/03/02 10:10:42;;;;;;;25.97;21.53;;;10.10;97.20;;;;;;1728734;28;20220;-66
2023/03/02 10:11:42;;;;;;;25.73;20.85;;;10.10;97.20;;;;;;1728778;28;20455;-65
2023/03/02 10:12:51;;;;;;;28.42;20.38;;;10.20;97.20;;;;;;1728515;28;20211;-65
2023/03/02 10:13:46;;;;;;;23.73;21.23;;;10.20;97.20;;;;;;1722853;28;20209;-66
2023/03/02 10:14:43;;;;;;;25.92;19.60;;;10.30;97.20;;;;;;1728457;28;20622;-66
2023/03/02 10:15:40;;;;;;;23.63;20.92;;;10.40;97.20;;;;;;1728785;28;20240;-65
2023/03/02 10:16:37;;;;;;;25.73;20.20;;;10.40;97.20;;;;;;1728417;28;20578;-65
2023/03/02 10:17:43;;;;;;;25.63;20.98;;;10.50;97.20;;;;;;1728646;28;20204;-65
2023/03/02 10:18:39;;;;;;;23.25;20.75;;;10.60;97.20;;;;;;1728717;28;20732;-65
2023/03/02 10:19:41;;;;;;;27.02;20.00;;;10.70;97.20;;;;;;1728728;28;20214;-65
2023/03/02 10:20:37;;;;;;;22.27;19.80;;;10.70;97.20;;;;;;1728656;28;20728;-65
2023/03/02 10:21:33;;;;;;;22.60;20.08;;;10.80;97.20;;;;;;1728685;28;20236;-65
2023/03/02 10:22:29;;;;;;;21.27;19.00;;;10.80;97.20;;;;;;1728709;28;20207;-65
2023/03/02 10:23:32;;;;;;;23.33;20.42;;;10.90;97.20;;;;;;1728572;28;20204;-66
2023/03/02 10:24:33;;;;;;;27.67;21.02;;;11.00;97.20;;;;;;1728694;28;20288;-65
2023/03/02 10:25:36;;;;;;;24.98;20.83;;;11.00;97.20;;;;;;1728716;28;20208;-65
2023/03/02 10:26:38;;;;;;;25.02;19.98;;;11.10;97.20;;;;;;1728382;28;20228;-65
2023/03/02 10:27:36;;;;;;;25.15;20.50;;;11.10;97.20;;;;;;1728668;28;20666;-65
2023/03/02 10:28:35;;;;;;;23.98;20.83;;;11.10;97.20;;;;;;1728641;28;20608;-66
2023/03/02 10:29:42;;;;;;;25.90;20.88;;;11.20;97.20;;;;;;1728340;28;20613;-65
2023/03/02 10:30:36;;;;;;;23.52;20.30;;;11.20;97.20;;;;;;1728524;28;20710;-65
2023/03/02 10:31:29;;;;;;;23.05;20.55;;;11.20;97.20;;;;;;1728593;28;20204;-65
2023/03/02 10:32:22;;;;;;;24.65;19.83;;;11.20;97.20;;;;;;1728691;28;20232;-65